createdAt,value
2018-02-25T00:01:30.142Z,-4.50
2018-02-25T00:03:58.431Z,-4.50
2018-02-25T00:06:26.702Z,-4.50
2018-02-25T00:08:55.038Z,-4.50
2018-02-25T00:11:23.316Z,-4.50
2018-02-25T00:13:54.405Z,-4.50
2018-02-25T00:16:22.710Z,-4.50
2018-02-25T00:18:51.008Z,-4.60
2018-02-25T00:21:19.300Z,-4.60
2018-02-25T00:23:48.135Z,-4.60
2018-02-25T00:26:17.950Z,-4.60
2018-02-25T00:28:46.216Z,-4.60
2018-02-25T00:31:14.504Z,-4.70
2018-02-25T00:33:42.768Z,-4.80
2018-02-25T00:36:12.564Z,-4.80
2018-02-25T00:38:42.156Z,-4.80
2018-02-25T00:41:10.417Z,-4.80
2018-02-25T00:43:38.705Z,-4.80
2018-02-25T00:46:07.108Z,-4.90
2018-02-25T00:48:35.607Z,-4.80
2018-02-25T00:51:05.398Z,-4.80
2018-02-25T00:53:33.696Z,-4.90
2018-02-25T00:56:01.966Z,-4.90
2018-02-25T00:58:30.227Z,-4.90
2018-02-25T01:00:58.940Z,-5.00
2018-02-25T01:03:29.397Z,-5.00
2018-02-25T01:05:58.421Z,-5.00
2018-02-25T01:08:26.750Z,-5.00
2018-02-25T01:10:55.797Z,-5.10
2018-02-25T01:13:24.059Z,-5.10
2018-02-25T01:15:52.673Z,-5.10
2018-02-25T01:18:20.945Z,-5.10
2018-02-25T01:20:49.211Z,-5.10
2018-02-25T01:23:17.492Z,-5.20
2018-02-25T01:25:45.767Z,-5.20
2018-02-25T01:28:15.347Z,-5.20
2018-02-25T01:30:43.658Z,-5.20
2018-02-25T01:33:11.912Z,-5.20
2018-02-25T01:35:40.174Z,-5.20
2018-02-25T01:38:08.716Z,-5.30
2018-02-25T01:40:38.576Z,-5.30
2018-02-25T01:43:06.850Z,-5.40
2018-02-25T01:45:35.290Z,-5.30
2018-02-25T01:48:04.310Z,-5.40
2018-02-25T01:50:47.658Z,-5.40
2018-02-25T01:53:15.945Z,-5.40
2018-02-25T01:55:44.211Z,-5.50
2018-02-25T01:58:12.727Z,-5.40
2018-02-25T02:00:43.243Z,-5.40
2018-02-25T02:03:12.226Z,-5.50
2018-02-25T02:05:40.564Z,-5.50
2018-02-25T02:08:09.590Z,-5.50
2018-02-25T02:10:37.875Z,-5.50
2018-02-25T02:13:07.338Z,-5.50
2018-02-25T02:15:35.628Z,-5.60
2018-02-25T02:18:03.906Z,-5.60
2018-02-25T02:20:32.457Z,-5.60
2018-02-25T02:23:00.708Z,-5.60
2018-02-25T02:25:28.980Z,-5.70
2018-02-25T02:27:57.262Z,-5.70
2018-02-25T02:30:25.612Z,-5.70
2018-02-25T02:32:54.710Z,-5.80
2018-02-25T02:35:23.034Z,-5.90
2018-02-25T02:37:52.427Z,-5.80
2018-02-25T02:40:20.714Z,-5.80
2018-02-25T02:42:50.103Z,-5.80
2018-02-25T02:45:18.382Z,-5.80
2018-02-25T02:47:46.652Z,-5.90
2018-02-25T02:50:15.551Z,-5.80
2018-02-25T02:52:46.417Z,-5.80
2018-02-25T02:55:14.691Z,-5.90
2018-02-25T02:57:43.238Z,-5.80
2018-02-25T03:00:11.531Z,-5.90
2018-02-25T03:02:41.492Z,-5.90
2018-02-25T03:05:10.100Z,-6.00
2018-02-25T03:07:38.390Z,-5.90
2018-02-25T03:10:06.793Z,-6.00
2018-02-25T03:12:35.901Z,-5.90
2018-02-25T03:15:05.002Z,-6.00
2018-02-25T03:17:34.057Z,-6.00
2018-02-25T03:20:02.356Z,-5.90
2018-02-25T03:22:31.402Z,-6.00
2018-02-25T03:24:59.685Z,-6.00
2018-02-25T03:27:28.584Z,-6.00
2018-02-25T03:29:56.846Z,-6.00
2018-02-25T03:32:25.107Z,-6.00
2018-02-25T03:34:53.721Z,-6.00
2018-02-25T03:37:22.015Z,-6.10
2018-02-25T03:39:50.360Z,-6.10
2018-02-25T03:42:18.990Z,-6.10
2018-02-25T03:44:48.035Z,-6.10
2018-02-25T03:47:16.301Z,-6.10
2018-02-25T03:49:45.224Z,-6.10
2018-02-25T03:52:14.325Z,-6.10
2018-02-25T03:54:45.136Z,-6.10
2018-02-25T03:57:13.664Z,-6.10
2018-02-25T03:59:42.748Z,-6.20
2018-02-25T04:02:10.975Z,-6.20
2018-02-25T04:04:40.017Z,-6.10
2018-02-25T04:07:08.400Z,-6.20
2018-02-25T04:09:36.676Z,-6.30
2018-02-25T04:12:05.905Z,-6.30
2018-02-25T04:14:34.087Z,-6.30
2018-02-25T04:17:03.215Z,-6.30
2018-02-25T04:19:31.547Z,-6.30
2018-02-25T04:21:59.816Z,-6.30
2018-02-25T04:24:28.093Z,-6.30
2018-02-25T04:26:57.935Z,-6.30
2018-02-25T04:29:27.033Z,-6.30
2018-02-25T04:31:56.979Z,-6.40
2018-02-25T04:34:25.440Z,-6.40
2018-02-25T04:36:53.706Z,-6.30
2018-02-25T04:39:21.998Z,-6.40
2018-02-25T04:41:50.828Z,-6.40
2018-02-25T04:44:19.851Z,-6.40
2018-02-25T04:46:48.129Z,-6.40
2018-02-25T04:49:16.591Z,-6.40
2018-02-25T04:51:44.927Z,-6.40
2018-02-25T04:54:16.327Z,-6.50
2018-02-25T04:56:46.655Z,-6.50
2018-02-25T04:59:14.944Z,-6.50
2018-02-25T05:01:43.220Z,-6.50
2018-02-25T05:04:11.920Z,-6.50
2018-02-25T05:06:40.246Z,-6.50
2018-02-25T05:09:09.275Z,-6.60
2018-02-25T05:11:37.729Z,-6.60
2018-02-25T05:14:06.010Z,-6.60
2018-02-25T05:16:34.274Z,-6.60
2018-02-25T05:19:05.903Z,-6.70
2018-02-25T05:21:35.798Z,-6.70
2018-02-25T05:24:04.075Z,-6.70
2018-02-25T05:26:33.711Z,-6.70
2018-02-25T05:29:02.777Z,-6.60
2018-02-25T05:31:31.323Z,-6.70
2018-02-25T05:33:59.961Z,-6.80
2018-02-25T05:36:29.747Z,-6.80
2018-02-25T05:38:58.037Z,-6.80
2018-02-25T05:41:26.363Z,-6.80
2018-02-25T05:43:55.467Z,-6.80
2018-02-25T05:46:25.288Z,-6.80
2018-02-25T05:48:53.696Z,-6.80
2018-02-25T05:51:21.978Z,-6.80
2018-02-25T05:53:50.242Z,-6.80
2018-02-25T05:56:20.672Z,-6.90
2018-02-25T05:58:52.090Z,-6.90
2018-02-25T06:01:20.368Z,-6.90
2018-02-25T06:03:49.002Z,-6.90
2018-02-25T06:06:17.315Z,-6.90
2018-02-25T06:08:45.593Z,-7.00
2018-02-25T06:11:15.390Z,-7.00
2018-02-25T06:13:44.420Z,-7.00
2018-02-25T06:16:12.722Z,-7.00
2018-02-25T06:18:41.042Z,-7.00
2018-02-25T06:21:10.257Z,-7.00
2018-02-25T06:23:40.036Z,-7.00
2018-02-25T06:26:08.384Z,-7.00
2018-02-25T06:28:36.714Z,-7.10
2018-02-25T06:31:05.045Z,-7.00
2018-02-25T06:33:34.886Z,-7.00
2018-02-25T06:36:03.929Z,-7.00
2018-02-25T06:38:32.212Z,-7.10
2018-02-25T06:41:01.058Z,-7.10
2018-02-25T06:43:30.096Z,-7.10
2018-02-25T06:46:00.425Z,-7.10
2018-02-25T06:48:28.756Z,-6.90
2018-02-25T06:50:57.901Z,-6.80
2018-02-25T06:53:26.280Z,-6.80
2018-02-25T06:55:54.779Z,-6.70
2018-02-25T06:58:23.837Z,-6.70
2018-02-25T07:00:53.029Z,-6.60
2018-02-25T07:03:22.019Z,-6.50
2018-02-25T07:05:50.336Z,-6.50
2018-02-25T07:08:18.611Z,-6.40
2018-02-25T07:10:47.421Z,-6.50
2018-02-25T07:13:15.865Z,-6.30
2018-02-25T07:15:44.178Z,-6.30
2018-02-25T07:18:12.508Z,-6.10
2018-02-25T07:20:40.784Z,-6.30
2018-02-25T07:23:09.057Z,-6.50
2018-02-25T07:25:37.387Z,-6.50
2018-02-25T07:28:06.482Z,-6.40
2018-02-25T07:30:35.525Z,-6.30
2018-02-25T07:33:03.827Z,-6.30
2018-02-25T07:35:33.813Z,-6.10
2018-02-25T07:38:02.102Z,-6.20
2018-02-25T07:40:30.618Z,-5.80
2018-02-25T07:42:58.896Z,-5.50
2018-02-25T07:45:27.153Z,-5.70
2018-02-25T07:47:58.507Z,-5.60
2018-02-25T07:50:26.780Z,-5.30
2018-02-25T07:52:55.051Z,-5.40
2018-02-25T07:55:23.486Z,-5.20
2018-02-25T07:57:51.747Z,-5.10
2018-02-25T08:00:23.557Z,-5.50
2018-02-25T08:02:51.982Z,-5.50
2018-02-25T08:05:21.023Z,-5.30
2018-02-25T08:07:49.280Z,-5.30
2018-02-25T08:10:17.571Z,-4.90
2018-02-25T08:12:45.841Z,-4.70
2018-02-25T08:15:14.103Z,-4.60
2018-02-25T08:17:42.403Z,-4.70
2018-02-25T08:20:10.728Z,-4.50
2018-02-25T08:22:38.994Z,-4.60
2018-02-25T08:25:09.418Z,-4.20
2018-02-25T08:27:37.681Z,-4.60
2018-02-25T08:30:05.988Z,-4.40
2018-02-25T08:32:35.948Z,-4.20
2018-02-25T08:35:04.208Z,-4.20
2018-02-25T08:37:33.950Z,-4.10
2018-02-25T08:40:02.450Z,-4.00
2018-02-25T08:42:30.722Z,-3.80
2018-02-25T08:44:59.003Z,-3.60
2018-02-25T08:47:27.787Z,-4.30
2018-02-25T08:49:57.754Z,-4.30
2018-02-25T08:52:26.047Z,-4.00
2018-02-25T08:54:54.671Z,-3.90
2018-02-25T08:57:22.929Z,-4.30
2018-02-25T08:59:51.188Z,-4.50
2018-02-25T09:02:21.258Z,-3.90
2018-02-25T09:04:52.111Z,-4.20
2018-02-25T09:07:20.406Z,-4.20
2018-02-25T09:09:48.929Z,-4.40
2018-02-25T09:12:17.185Z,-3.50
2018-02-25T09:14:49.596Z,-3.60
2018-02-25T09:17:17.845Z,-3.60
2018-02-25T09:19:46.112Z,-3.30
2018-02-25T09:22:14.552Z,-3.10
2018-02-25T09:24:42.817Z,-3.40
2018-02-25T09:27:14.127Z,-3.30
2018-02-25T09:29:42.592Z,-3.30
2018-02-25T09:32:10.872Z,-3.40
2018-02-25T09:34:39.141Z,-3.10
2018-02-25T09:37:07.547Z,-2.80
2018-02-25T09:39:36.789Z,-3.20
2018-02-25T09:42:05.818Z,-3.30
2018-02-25T09:44:34.391Z,-3.30
2018-02-25T09:47:03.378Z,-3.40
2018-02-25T09:49:32.512Z,-3.50
2018-02-25T09:52:03.188Z,-3.50
2018-02-25T09:54:31.440Z,-3.30
2018-02-25T09:56:59.728Z,-2.30
2018-02-25T09:59:28.500Z,-2.70
2018-02-25T10:01:57.532Z,-2.80
2018-02-25T10:04:27.913Z,-2.80
2018-02-25T10:06:57.594Z,-2.30
2018-02-25T10:09:25.869Z,-2.30
2018-02-25T10:11:54.144Z,-2.60
2018-02-25T10:14:22.612Z,-2.60
2018-02-25T10:16:51.805Z,-2.40
2018-02-25T10:19:20.187Z,-2.60
2018-02-25T10:21:50.124Z,-1.70
2018-02-25T10:24:18.500Z,-2.20
2018-02-25T10:26:46.962Z,-2.60
2018-02-25T10:29:16.588Z,-2.00
2018-02-25T10:31:44.864Z,-2.10
2018-02-25T10:34:13.125Z,-2.30
2018-02-25T10:36:41.519Z,-1.50
2018-02-25T10:39:09.808Z,-1.80
2018-02-25T10:41:38.815Z,-0.90
2018-02-25T10:44:07.284Z,-1.70
2018-02-25T10:46:35.559Z,-1.90
2018-02-25T10:49:03.832Z,-1.80
2018-02-25T10:51:32.125Z,-1.10
2018-02-25T10:54:02.421Z,-1.70
2018-02-25T10:56:30.798Z,-1.70
2018-02-25T10:58:59.111Z,-1.60
2018-02-25T11:01:28.158Z,-2.00
2018-02-25T11:03:56.415Z,-2.00
2018-02-25T11:06:24.730Z,-1.70
2018-02-25T11:08:53.303Z,-2.10
2018-02-25T11:11:21.561Z,-2.20
2018-02-25T11:13:49.861Z,-2.10
2018-02-25T11:16:18.127Z,-1.80
2018-02-25T11:18:47.200Z,-1.70
2018-02-25T11:21:15.785Z,-0.90
2018-02-25T11:23:44.050Z,-1.80
2018-02-25T11:26:12.344Z,-1.90
2018-02-25T11:28:40.853Z,-2.30
2018-02-25T11:31:09.133Z,-2.10
2018-02-25T11:33:37.411Z,-1.60
2018-02-25T11:36:05.993Z,-1.00
2018-02-25T11:38:34.257Z,-1.50
2018-02-25T11:41:02.527Z,-1.40
2018-02-25T11:43:33.198Z,-1.00
2018-02-25T11:46:01.453Z,-0.90
2018-02-25T11:48:29.724Z,-0.80
2018-02-25T11:50:58.916Z,-0.60
2018-02-25T11:53:27.190Z,-0.60
2018-02-25T11:55:58.470Z,-0.90
2018-02-25T11:58:27.073Z,0.20
2018-02-25T12:00:56.103Z,-0.80
2018-02-25T12:03:24.374Z,-0.90
2018-02-25T12:05:52.772Z,-1.10
2018-02-25T12:08:22.037Z,-1.00
2018-02-25T12:10:55.195Z,-0.80
2018-02-25T12:13:24.360Z,-0.80
2018-02-25T12:15:52.632Z,-0.80
2018-02-25T12:18:21.034Z,-1.20
2018-02-25T12:20:50.053Z,-0.60
2018-02-25T12:23:19.102Z,0.20
2018-02-25T12:25:47.491Z,0.20
2018-02-25T12:28:15.772Z,-0.50
2018-02-25T12:30:46.807Z,-0.60
2018-02-25T12:33:17.225Z,0.00
2018-02-25T12:35:45.525Z,0.30
2018-02-25T12:38:13.791Z,-0.80
2018-02-25T12:40:42.157Z,-0.60
2018-02-25T12:43:11.170Z,-0.10
2018-02-25T12:45:39.441Z,-0.80
2018-02-25T12:48:07.909Z,-0.30
2018-02-25T12:50:36.263Z,-0.90
2018-02-25T12:53:04.565Z,-0.90
2018-02-25T12:55:35.660Z,-0.10
2018-02-25T12:58:04.683Z,-0.50
2018-02-25T13:00:32.947Z,-0.60
2018-02-25T13:03:01.389Z,-0.20
2018-02-25T13:05:29.646Z,-1.00
2018-02-25T13:08:00.958Z,-0.30
2018-02-25T13:10:30.510Z,-0.30
2018-02-25T13:13:00.916Z,-0.10
2018-02-25T13:15:29.186Z,-0.30
2018-02-25T13:17:57.787Z,0.30
2018-02-25T13:20:26.064Z,0.00
2018-02-25T13:22:54.325Z,0.00
2018-02-25T13:25:22.616Z,0.20
2018-02-25T13:27:50.894Z,-0.10
2018-02-25T13:30:19.221Z,-0.50
2018-02-25T13:32:51.284Z,-0.90
2018-02-25T13:35:20.241Z,-0.60
2018-02-25T13:37:49.264Z,0.00
2018-02-25T13:40:17.967Z,0.00
2018-02-25T13:42:46.223Z,-0.70
2018-02-25T13:45:17.648Z,-0.90
2018-02-25T13:47:46.842Z,-0.50
2018-02-25T13:50:15.884Z,-0.40
2018-02-25T13:52:44.142Z,-0.50
2018-02-25T13:55:12.446Z,-0.50
2018-02-25T13:57:42.409Z,-0.50
2018-02-25T14:00:10.673Z,-0.20
2018-02-25T14:02:39.057Z,0.20
2018-02-25T14:05:07.359Z,-0.60
2018-02-25T14:07:36.397Z,-0.40
2018-02-25T14:10:05.610Z,-1.00
2018-02-25T14:12:33.874Z,-1.00
2018-02-25T14:15:02.712Z,-0.60
2018-02-25T14:17:31.020Z,-0.70
2018-02-25T14:19:59.309Z,-0.80
2018-02-25T14:22:27.693Z,-0.80
2018-02-25T14:24:56.190Z,-0.80
2018-02-25T14:27:24.468Z,-0.70
2018-02-25T14:29:52.724Z,-0.70
2018-02-25T14:32:22.144Z,-1.00
2018-02-25T14:34:55.497Z,-1.00
2018-02-25T14:37:24.182Z,-1.00
2018-02-25T14:39:52.400Z,-0.90
2018-02-25T14:42:20.666Z,-1.00
2018-02-25T14:44:49.060Z,-1.00
2018-02-25T14:47:17.315Z,-1.10
2018-02-25T14:49:46.295Z,-0.60
2018-02-25T14:52:14.791Z,-1.00
2018-02-25T14:54:43.056Z,-0.90
2018-02-25T14:57:11.366Z,-0.90
2018-02-25T15:02:16.422Z,-1.20
2018-02-25T15:04:44.750Z,-1.30
2018-02-25T15:07:13.004Z,-1.00
2018-02-25T15:09:41.930Z,-0.90
2018-02-25T15:12:10.223Z,-1.10
2018-02-25T15:14:38.499Z,-1.20
2018-02-25T15:17:06.988Z,-1.20
2018-02-25T15:19:35.669Z,-1.40
2018-02-25T15:22:04.718Z,-1.70
2018-02-25T15:24:32.972Z,-1.70
2018-02-25T15:27:02.224Z,-1.90
2018-02-25T15:29:30.501Z,-1.90
2018-02-25T15:31:58.772Z,-1.60
2018-02-25T15:34:28.931Z,-1.70
2018-02-25T15:37:01.479Z,-1.90
2018-02-25T15:39:32.248Z,-1.90
2018-02-25T15:42:02.427Z,-1.80
2018-02-25T15:44:30.766Z,-1.80
2018-02-25T15:46:59.311Z,-1.90
2018-02-25T15:49:27.832Z,-1.80
2018-02-25T15:51:56.117Z,-1.80
2018-02-25T15:54:27.014Z,-2.00
2018-02-25T15:56:58.786Z,-1.80
2018-02-25T15:59:27.829Z,-1.70
2018-02-25T16:01:56.434Z,-1.70
2018-02-25T16:04:25.524Z,-1.80
2018-02-25T16:07:11.607Z,-1.70
2018-02-25T16:09:52.336Z,-1.80
2018-02-25T16:12:20.759Z,-1.80
2018-02-25T16:14:49.020Z,-1.80
2018-02-25T16:17:17.377Z,-2.00
2018-02-25T16:19:45.684Z,-2.10
2018-02-25T16:22:13.954Z,-2.10
2018-02-25T16:24:42.204Z,-2.10
2018-02-25T16:27:10.742Z,-2.20
2018-02-25T16:29:42.990Z,-2.30
2018-02-25T16:32:11.473Z,-2.30
2018-02-25T16:34:39.775Z,-2.40
2018-02-25T16:37:08.036Z,-2.40
2018-02-25T16:39:36.507Z,-2.40
2018-02-25T16:42:05.567Z,-2.40
2018-02-25T16:44:33.829Z,-2.40
2018-02-25T16:47:03.287Z,-2.60
2018-02-25T16:49:31.595Z,-2.60
2018-02-25T16:51:59.841Z,-2.60
2018-02-25T16:54:31.604Z,-2.60
2018-02-25T16:56:59.873Z,-2.80
2018-02-25T16:59:28.150Z,-2.70
2018-02-25T17:01:57.181Z,-2.70
2018-02-25T17:04:27.060Z,-2.70
2018-02-25T17:06:57.795Z,-2.70
2018-02-25T17:09:26.279Z,-2.70
2018-02-25T17:11:54.551Z,-2.60
2018-02-25T17:14:25.116Z,-2.70
2018-02-25T17:16:54.394Z,-2.80
2018-02-25T17:19:22.717Z,-2.70
2018-02-25T17:21:51.142Z,-2.70
2018-02-25T17:24:19.844Z,-2.80
2018-02-25T17:26:48.201Z,-2.80
2018-02-25T17:29:17.985Z,-2.80
2018-02-25T17:31:48.680Z,-2.80
2018-02-25T17:34:17.716Z,-2.90
2018-02-25T17:36:45.972Z,-2.80
2018-02-25T17:39:14.267Z,-2.90
2018-02-25T17:41:42.592Z,-2.90
2018-02-25T17:44:13.287Z,-2.90
2018-02-25T17:46:41.575Z,-3.00
2018-02-25T17:49:09.943Z,-3.10
2018-02-25T17:51:38.207Z,-3.00
2018-02-25T17:54:07.111Z,-3.00
2018-02-25T17:56:37.385Z,-3.10
2018-02-25T17:59:05.658Z,-3.00
2018-02-25T18:01:34.740Z,-3.10
2018-02-25T18:04:03.028Z,-3.20
2018-02-25T18:06:32.073Z,-3.10
2018-02-25T18:09:05.599Z,-3.10
2018-02-25T18:11:33.861Z,-3.10
2018-02-25T18:14:02.129Z,-3.10
2018-02-25T18:16:31.769Z,-3.20
2018-02-25T18:19:00.037Z,-3.20
2018-02-25T18:21:29.088Z,-3.20
2018-02-25T18:23:57.392Z,-3.20
2018-02-25T18:26:25.654Z,-3.30
2018-02-25T18:28:53.934Z,-3.30
2018-02-25T18:31:22.224Z,-3.20
2018-02-25T18:33:51.505Z,-3.30
2018-02-25T18:36:19.756Z,-3.30
2018-02-25T18:38:48.416Z,-3.30
2018-02-25T18:41:16.711Z,-3.30
2018-02-25T18:43:45.008Z,-3.20
2018-02-25T18:46:14.877Z,-3.30
2018-02-25T18:48:43.893Z,-3.30
2018-02-25T18:51:12.205Z,-3.40
2018-02-25T18:53:40.535Z,-3.40
2018-02-25T18:56:09.560Z,-3.40
2018-02-25T18:58:37.930Z,-3.40
2018-02-25T19:01:07.182Z,-3.40
2018-02-25T19:03:35.485Z,-3.40
2018-02-25T19:06:04.534Z,-3.50
2018-02-25T19:08:32.836Z,-3.50
2018-02-25T19:11:03.516Z,-3.40
2018-02-25T19:13:31.794Z,-3.50
2018-02-25T19:16:00.095Z,-3.50
2018-02-25T19:18:29.787Z,-3.50
2018-02-25T19:20:58.072Z,-3.60
2018-02-25T19:23:27.897Z,-3.50
2018-02-25T19:25:56.164Z,-3.60
2018-02-25T19:28:24.543Z,-3.50
2018-02-25T19:30:53.433Z,-3.60
2018-02-25T19:33:21.721Z,-3.60
2018-02-25T19:35:56.519Z,-3.60
2018-02-25T19:38:30.547Z,-3.60
2018-02-25T19:41:04.819Z,-3.60
2018-02-25T19:43:33.089Z,-3.60
2018-02-25T19:46:02.114Z,-3.70
2018-02-25T19:48:30.940Z,-3.80
2018-02-25T19:50:59.226Z,-3.70
2018-02-25T19:53:27.499Z,-3.70
2018-02-25T19:55:55.799Z,-3.70
2018-02-25T19:58:27.594Z,-3.80
2018-02-25T20:00:55.970Z,-3.70
2018-02-25T20:03:24.234Z,-3.80
2018-02-25T20:05:52.503Z,-3.70
2018-02-25T20:08:20.792Z,-3.70
2018-02-25T20:10:52.170Z,-3.80
2018-02-25T20:13:20.453Z,-3.80
2018-02-25T20:15:48.938Z,-3.80
2018-02-25T20:18:17.230Z,-3.80
2018-02-25T20:20:46.362Z,-3.80
2018-02-25T20:23:16.616Z,-3.80
2018-02-25T20:25:44.886Z,-3.80
2018-02-25T20:28:13.152Z,-3.80
2018-02-25T20:30:41.567Z,-3.80
2018-02-25T20:33:10.407Z,-3.90
2018-02-25T20:35:39.395Z,-3.90
2018-02-25T20:38:08.070Z,-3.90
2018-02-25T20:40:36.333Z,-4.00
2018-02-25T20:43:06.121Z,-4.00
2018-02-25T20:45:34.587Z,-4.00
2018-02-25T20:48:03.843Z,-4.10
2018-02-25T20:50:32.110Z,-4.10
2018-02-25T20:53:00.445Z,-4.10
2018-02-25T20:55:28.734Z,-4.20
2018-02-25T20:57:57.048Z,-4.20
2018-02-25T21:00:27.449Z,-4.30
2018-02-25T21:02:56.244Z,-4.20
2018-02-25T21:05:25.771Z,-4.30
2018-02-25T21:07:54.344Z,-4.30
2018-02-25T21:10:23.160Z,-4.30
2018-02-25T21:12:55.273Z,-4.30
2018-02-25T21:15:23.670Z,-4.40
2018-02-25T21:17:51.940Z,-4.40
2018-02-25T21:20:21.021Z,-4.50
2018-02-25T21:22:50.506Z,-4.50
2018-02-25T21:25:19.579Z,-4.50
2018-02-25T21:27:47.831Z,-4.60
2018-02-25T21:30:16.180Z,-4.60
2018-02-25T21:32:44.488Z,-4.60
2018-02-25T21:35:12.712Z,-4.60
2018-02-25T21:37:42.832Z,-4.70
2018-02-25T21:40:11.108Z,-4.60
2018-02-25T21:42:39.428Z,-4.60
2018-02-25T21:45:08.478Z,-4.70
2018-02-25T21:47:36.746Z,-4.80
2018-02-25T21:50:07.275Z,-4.70
2018-02-25T21:52:35.721Z,-4.70
2018-02-25T21:55:04.011Z,-4.70
2018-02-25T21:57:38.112Z,-4.70
2018-02-25T22:00:12.914Z,-4.80
2018-02-25T22:02:48.011Z,-4.90
2018-02-25T22:05:16.279Z,-4.90
2018-02-25T22:07:44.528Z,-4.90
2018-02-25T22:10:13.696Z,-4.90
2018-02-25T22:12:44.184Z,-4.90
2018-02-25T22:15:12.451Z,-5.00
2018-02-25T22:17:41.569Z,-4.90
2018-02-25T22:20:09.842Z,-4.90
2018-02-25T22:22:39.093Z,-4.90
2018-02-25T22:25:09.163Z,-5.00
2018-02-25T22:27:37.476Z,-5.00
2018-02-25T22:30:06.499Z,-5.00
2018-02-25T22:32:34.810Z,-5.00
2018-02-25T22:35:03.137Z,-5.00
2018-02-25T22:37:32.165Z,-5.10
2018-02-25T22:40:00.458Z,-5.10
2018-02-25T22:42:28.739Z,-5.10
2018-02-25T22:44:57.011Z,-5.10
2018-02-25T22:47:26.274Z,-5.20
2018-02-25T22:49:56.022Z,-5.20
2018-02-25T22:52:24.285Z,-5.20
2018-02-25T22:54:52.882Z,-5.20
2018-02-25T22:57:21.920Z,-5.20
2018-02-25T22:59:51.046Z,-5.20
2018-02-25T23:02:19.311Z,-5.20
2018-02-25T23:04:47.574Z,-5.20
2018-02-25T23:07:15.848Z,-5.30
2018-02-25T23:09:44.377Z,-5.30
2018-02-25T23:12:14.233Z,-5.30
2018-02-25T23:14:43.291Z,-5.30
2018-02-25T23:17:11.736Z,-5.30
2018-02-25T23:19:40.003Z,-5.30
2018-02-25T23:22:08.265Z,-5.30
2018-02-25T23:24:38.229Z,-5.30
2018-02-25T23:27:06.768Z,-5.40
2018-02-25T23:29:35.018Z,-5.40
2018-02-25T23:32:04.093Z,-5.40
2018-02-25T23:34:32.345Z,-5.50
2018-02-25T23:37:01.425Z,-5.40
2018-02-25T23:39:30.659Z,-5.40
2018-02-25T23:41:58.940Z,-5.50
2018-02-25T23:44:27.215Z,-5.40
2018-02-25T23:46:55.796Z,-5.40
2018-02-25T23:49:27.122Z,-5.40
2018-02-25T23:51:57.186Z,-5.40
2018-02-25T23:54:26.222Z,-5.50
2018-02-25T23:56:54.476Z,-5.60
2018-02-25T23:59:22.768Z,-5.60
